Time;durP1;ratioP1;P1;durP2;ratioP2;P2;SDS_P1;SDS_P2;PMS_P1;PMS_P2;Temp;Humidity;BMP_temperature;BMP_pressure;BME280_temperature;BME280_humidity;BME280_pressure;Samples;Min_cycle;Max_cycle;Signal;HPM_P1;HPM_P2
2021/12/09 03:46:05;;;;;;;159.15;66.88;;;3.00;99.90;;;;;;5297989;24;20046;-83
2021/12/09 03:48:31;;;;;;;165.70;66.93;;;2.90;99.90;;;;;;4661164;30;20066;-83
2021/12/09 03:50:57;;;;;;;161.07;67.68;;;2.90;99.90;;;;;;4646582;30;20038;-83
2021/12/09 03:53:24;;;;;;;175.18;69.53;;;2.90;99.90;;;;;;4676569;30;20086;-83
2021/12/09 03:55:51;;;;;;;172.57;71.43;;;2.90;99.90;;;;;;4661132;30;20099;-82
2021/12/09 03:58:18;;;;;;;177.98;70.55;;;2.90;99.90;;;;;;4661125;30;20035;-82
2021/12/09 04:00:44;;;;;;;151.10;65.20;;;2.90;99.90;;;;;;4647348;30;20042;-83
2021/12/09 04:03:10;;;;;;;164.45;68.53;;;3.00;99.90;;;;;;4633000;30;20046;-82
2021/12/09 04:05:37;;;;;;;187.32;73.55;;;3.00;99.90;;;;;;4647173;30;20085;-82
2021/12/09 04:08:03;;;;;;;151.32;66.43;;;3.00;99.90;;;;;;4646922;30;20077;-82
2021/12/09 04:10:31;;;;;;;158.43;66.82;;;3.00;99.90;;;;;;4646905;30;20081;-82
2021/12/09 04:12:58;;;;;;;158.50;67.63;;;3.00;99.90;;;;;;4661100;30;20050;-82
2021/12/09 04:15:24;;;;;;;154.43;66.35;;;3.00;99.90;;;;;;4633072;30;20049;-82
2021/12/09 04:17:50;;;;;;;167.63;69.53;;;3.00;99.90;;;;;;4660883;30;20046;-82
2021/12/09 04:20:16;;;;;;;179.80;71.82;;;3.00;99.90;;;;;;4633011;30;20109;-82
2021/12/09 04:22:48;;;;;;;186.05;72.68;;;3.00;99.90;;;;;;4647006;30;20093;-82
2021/12/09 04:25:19;;;;;;;152.63;67.60;;;3.00;99.90;;;;;;4646757;30;20034;-82
2021/12/09 04:27:46;;;;;;;172.45;68.97;;;3.00;99.90;;;;;;4660872;30;20031;-81
2021/12/09 04:30:12;;;;;;;;;;;3.00;99.90;;;;;;4635137;30;20057;-81
2021/12/09 04:32:38;;;;;;;196.80;73.10;;;3.00;99.90;;;;;;4647993;30;19911;-81
2021/12/09 04:35:05;;;;;;;206.05;76.63;;;3.00;99.90;;;;;;4645066;30;20370;-81
2021/12/09 04:37:31;;;;;;;180.65;71.03;;;3.00;99.90;;;;;;4644177;30;20042;-81
2021/12/09 04:39:57;;;;;;;190.00;75.72;;;3.00;99.90;;;;;;4633939;30;20069;-81
2021/12/09 04:42:22;;;;;;;182.43;70.60;;;3.00;99.90;;;;;;4619375;30;20334;-80
2021/12/09 04:44:49;;;;;;;184.98;73.53;;;3.00;99.90;;;;;;4647405;30;20034;-81
2021/12/09 04:47:15;;;;;;;186.50;73.20;;;2.90;99.90;;;;;;4648145;30;20082;-80
2021/12/09 04:49:41;;;;;;;203.50;77.05;;;2.90;99.90;;;;;;4640692;31;20303;-80
2021/12/09 04:52:07;;;;;;;208.88;78.15;;;3.00;99.90;;;;;;4626863;31;20335;-80
2021/12/09 04:54:36;;;;;;;152.30;66.80;;;3.00;99.90;;;;;;4640883;31;20036;-79
2021/12/09 04:57:04;;;;;;;163.85;66.43;;;3.00;99.90;;;;;;4655111;30;20053;-78
2021/12/09 04:59:30;;;;;;;214.00;79.78;;;3.00;99.90;;;;;;4631968;30;20237;-78
2021/12/09 05:01:56;;;;;;;155.40;64.75;;;3.00;99.90;;;;;;4640445;30;20075;-78
2021/12/09 05:04:21;;;;;;;178.88;69.35;;;3.00;99.90;;;;;;4632438;31;20039;-78
2021/12/09 05:06:47;;;;;;;176.77;69.65;;;3.10;99.90;;;;;;4640604;31;20046;-77
2021/12/09 05:09:17;;;;;;;181.98;71.65;;;3.10;99.90;;;;;;4640375;31;20048;-77
2021/12/09 05:14:17;;;;;;;176.07;69.80;;;3.00;99.90;;;;;;4640767;30;20114;-77
2021/12/09 05:16:44;;;;;;;156.63;67.65;;;3.00;99.90;;;;;;4640296;30;20035;-77
2021/12/09 05:19:10;;;;;;;166.75;67.75;;;3.00;99.90;;;;;;4653856;30;20042;-77
2021/12/09 05:21:39;;;;;;;178.17;68.07;;;3.00;99.90;;;;;;4640955;30;20122;-77
2021/12/09 05:24:10;;;;;;;160.95;64.47;;;3.00;99.90;;;;;;4662986;30;20035;-77
2021/12/09 05:26:44;;;;;;;161.48;62.67;;;3.00;99.90;;;;;;4662951;30;20200;-77
2021/12/09 05:29:11;;;;;;;140.15;57.35;;;3.00;99.90;;;;;;4657550;30;20043;-78
2021/12/09 05:34:22;;;;;;;149.18;61.35;;;3.00;99.90;;;;;;4662247;30;20038;-77
2021/12/09 05:36:48;;;;;;;155.52;63.30;;;3.00;99.90;;;;;;4654948;30;20058;-77
2021/12/09 05:39:16;;;;;;;151.43;60.92;;;3.00;99.90;;;;;;4636516;30;20158;-77
2021/12/09 05:41:43;;;;;;;138.93;58.58;;;3.00;99.90;;;;;;4655073;30;20323;-77
2021/12/09 05:44:09;;;;;;;;;;;3.00;99.90;;;;;;4639586;30;20492;-77
2021/12/09 05:46:38;;;;;;;142.63;58.60;;;3.00;99.90;;;;;;4674303;30;19919;-78
2021/12/09 05:49:06;;;;;;;134.18;57.15;;;3.00;99.90;;;;;;4639860;30;20077;-78
2021/12/09 05:51:32;;;;;;;126.47;51.67;;;3.00;99.90;;;;;;4667475;30;20034;-78
2021/12/09 05:53:58;;;;;;;146.57;59.37;;;3.00;99.90;;;;;;4660095;30;20322;-78
2021/12/09 05:56:25;;;;;;;139.20;58.30;;;3.00;99.90;;;;;;4648892;30;20363;-78
2021/12/09 05:58:50;;;;;;;135.23;56.72;;;3.10;99.90;;;;;;4677929;30;20041;-77
2021/12/09 06:01:17;;;;;;;136.45;55.08;;;3.00;99.90;;;;;;4646239;30;20115;-78
2021/12/09 06:03:43;;;;;;;159.45;61.83;;;3.00;99.90;;;;;;4641343;30;20055;-77
2021/12/09 06:06:09;;;;;;;137.82;56.90;;;3.00;99.90;;;;;;4639393;30;20075;-78
2021/12/09 06:08:38;;;;;;;151.73;58.17;;;3.00;99.90;;;;;;4648709;30;20046;-78
2021/12/09 06:11:05;;;;;;;150.32;58.60;;;3.00;99.90;;;;;;4648572;30;20359;-78
2021/12/09 06:13:32;;;;;;;;;;;3.00;99.90;;;;;;4649106;30;20550;-78
2021/12/09 06:15:59;;;;;;;142.48;54.88;;;3.00;99.90;;;;;;4646293;30;20119;-78
2021/12/09 06:18:25;;;;;;;132.90;56.15;;;3.00;99.90;;;;;;4648703;30;20034;-78
2021/12/09 06:20:51;;;;;;;141.57;58.03;;;3.00;99.90;;;;;;4652632;30;20354;-78
2021/12/09 06:23:17;;;;;;;155.70;57.40;;;3.00;99.90;;;;;;4633192;30;20051;-78
2021/12/09 06:25:44;;;;;;;140.02;54.70;;;3.00;99.90;;;;;;4648575;30;20049;-78
2021/12/09 06:28:10;;;;;;;162.15;58.00;;;3.10;99.90;;;;;;4648702;30;20038;-78
2021/12/09 06:30:36;;;;;;;123.93;52.80;;;3.10;99.90;;;;;;4648100;30;20039;-79
2021/12/09 06:33:05;;;;;;;136.38;55.63;;;3.10;99.90;;;;;;4648062;30;20354;-78
2021/12/09 06:35:33;;;;;;;111.15;48.92;;;3.00;99.90;;;;;;4645980;30;20070;-79
2021/12/09 06:38:00;;;;;;;133.95;54.95;;;3.10;99.90;;;;;;4648340;30;20042;-79
2021/12/09 06:40:26;;;;;;;121.45;53.28;;;3.10;99.90;;;;;;4662398;30;20055;-79
2021/12/09 06:42:53;;;;;;;134.68;54.85;;;3.10;99.90;;;;;;4662223;30;20050;-79
2021/12/09 06:45:21;;;;;;;167.13;59.40;;;3.10;99.90;;;;;;4661973;30;20114;-79
2021/12/09 06:47:49;;;;;;;134.23;53.72;;;3.10;99.90;;;;;;4661874;30;20043;-79
2021/12/09 06:50:17;;;;;;;115.93;50.05;;;3.10;99.90;;;;;;4647396;30;20050;-79
2021/12/09 06:52:44;;;;;;;123.47;55.10;;;3.20;99.90;;;;;;4645601;30;20041;-79
2021/12/09 06:55:12;;;;;;;133.88;53.50;;;3.20;99.90;;;;;;4660983;30;20073;-79
2021/12/09 06:57:43;;;;;;;115.35;51.13;;;3.30;99.90;;;;;;4666682;30;20053;-79
2021/12/09 07:00:12;;;;;;;109.78;50.17;;;3.30;99.90;;;;;;4673259;30;20057;-78
2021/12/09 07:02:38;;;;;;;114.25;50.95;;;3.30;99.90;;;;;;4666373;30;20042;-78
2021/12/09 07:05:07;;;;;;;128.90;54.75;;;3.40;99.90;;;;;;4646535;30;20034;-78
2021/12/09 07:07:32;;;;;;;133.00;56.22;;;3.40;99.90;;;;;;4661398;30;20251;-79
2021/12/09 07:09:58;;;;;;;113.15;51.28;;;3.40;99.90;;;;;;4647390;30;20044;-78
2021/12/09 07:12:24;;;;;;;131.85;53.05;;;3.50;99.90;;;;;;4676072;30;20034;-78
2021/12/09 07:14:51;;;;;;;122.38;51.25;;;3.50;99.90;;;;;;4646781;30;20318;-79
2021/12/09 07:17:17;;;;;;;110.25;49.67;;;3.50;99.90;;;;;;4651817;30;20286;-78
2021/12/09 07:19:43;;;;;;;98.53;44.10;;;3.60;99.90;;;;;;4632943;30;20226;-79
2021/12/09 07:22:09;;;;;;;108.57;50.42;;;3.70;99.90;;;;;;4660812;30;20054;-78
2021/12/09 07:24:35;;;;;;;106.10;50.35;;;3.80;99.90;;;;;;4676091;30;20035;-79
2021/12/09 07:27:01;;;;;;;127.30;55.63;;;3.80;99.90;;;;;;4645584;30;20040;-78
2021/12/09 07:29:29;;;;;;;92.63;47.50;;;3.90;99.90;;;;;;4659968;30;20038;-79
2021/12/09 07:31:55;;;;;;;106.05;49.95;;;3.90;99.90;;;;;;4657819;30;20084;-78
2021/12/09 07:34:21;;;;;;;140.70;63.00;;;4.00;99.90;;;;;;4660317;30;20100;-78
2021/12/09 07:36:47;;;;;;;140.82;65.28;;;4.00;99.90;;;;;;4646092;30;20489;-78
2021/12/09 07:39:13;;;;;;;156.10;71.03;;;4.10;99.90;;;;;;4645970;30;20038;-78
2021/12/09 07:41:39;;;;;;;136.32;62.30;;;4.20;99.90;;;;;;4652357;30;20113;-78
2021/12/09 07:44:05;;;;;;;130.73;62.97;;;4.20;99.90;;;;;;4642865;30;20136;-78
2021/12/09 07:46:33;;;;;;;109.13;55.88;;;4.20;99.90;;;;;;4665732;30;20062;-78
2021/12/09 07:48:59;;;;;;;115.43;54.53;;;4.20;99.90;;;;;;4660580;30;20335;-78
2021/12/09 07:51:25;;;;;;;86.53;43.90;;;4.20;99.90;;;;;;4660787;30;20362;-78
2021/12/09 07:53:51;;;;;;;96.50;47.00;;;4.30;99.90;;;;;;4660536;30;20043;-78
2021/12/09 07:56:17;;;;;;;91.85;45.30;;;4.30;99.90;;;;;;4675936;30;20038;-78
2021/12/09 07:58:43;;;;;;;87.00;42.90;;;4.30;99.90;;;;;;4674331;30;20093;-78
2021/12/09 08:01:09;;;;;;;85.53;41.70;;;4.30;99.90;;;;;;4657136;30;20238;-79
2021/12/09 08:03:34;;;;;;;87.35;41.95;;;4.30;99.90;;;;;;4660130;30;20281;-80
2021/12/09 08:06:00;;;;;;;82.55;41.80;;;4.30;99.90;;;;;;4646214;30;20050;-79
2021/12/09 08:08:26;;;;;;;79.63;41.67;;;4.30;99.90;;;;;;4659913;30;20042;-79
2021/12/09 08:10:52;;;;;;;80.78;40.75;;;4.30;99.90;;;;;;4674063;30;20353;-79
2021/12/09 08:13:18;;;;;;;75.93;39.50;;;4.30;99.90;;;;;;4660299;30;20049;-79
2021/12/09 08:15:49;;;;;;;71.83;39.87;;;4.20;99.90;;;;;;4674474;30;20043;-79
2021/12/09 08:20:47;;;;;;;71.18;37.40;;;4.30;99.90;;;;;;4666936;30;20373;-80
2021/12/09 08:23:13;;;;;;;71.53;37.58;;;4.30;99.90;;;;;;4674401;30;20416;-80
2021/12/09 08:25:40;;;;;;;69.70;38.17;;;4.40;99.90;;;;;;4675122;30;20030;-80
2021/12/09 08:28:05;;;;;;;79.37;45.27;;;4.50;99.90;;;;;;4674322;30;20334;-80
2021/12/09 08:30:31;;;;;;;76.75;41.97;;;4.50;99.90;;;;;;4645925;30;20038;-79
2021/12/09 08:32:57;;;;;;;71.35;37.80;;;4.50;99.90;;;;;;4673929;30;20053;-80
2021/12/09 08:35:23;;;;;;;92.68;43.67;;;4.60;99.90;;;;;;4645190;30;20081;-80
2021/12/09 08:37:50;;;;;;;92.95;46.03;;;4.50;99.90;;;;;;4673446;30;20059;-80
2021/12/09 08:40:17;;;;;;;89.57;46.58;;;4.40;99.90;;;;;;4638520;30;20053;-80
2021/12/09 08:42:49;;;;;;;86.65;42.20;;;4.40;99.90;;;;;;4651099;30;20081;-80
2021/12/09 08:45:15;;;;;;;89.82;43.05;;;4.40;99.90;;;;;;4672416;30;20035;-80
2021/12/09 08:47:42;;;;;;;89.78;45.20;;;4.50;99.90;;;;;;4659531;30;20334;-80
2021/12/09 08:50:11;;;;;;;90.03;44.38;;;4.40;99.90;;;;;;4673637;30;20041;-80
2021/12/09 08:52:38;;;;;;;85.55;41.70;;;4.30;99.90;;;;;;4668804;30;20050;-80
2021/12/09 08:55:05;;;;;;;83.30;42.80;;;4.20;99.90;;;;;;4640393;30;20048;-80
2021/12/09 08:57:32;;;;;;;;;;;4.20;99.90;;;;;;4633684;30;20054;-80
2021/12/09 08:59:58;;;;;;;87.22;42.38;;;4.20;99.90;;;;;;4671281;30;20203;-80
2021/12/09 09:02:25;;;;;;;92.90;43.05;;;4.30;99.90;;;;;;4661273;30;20109;-80
2021/12/09 09:04:51;;;;;;;74.78;39.67;;;4.30;99.90;;;;;;4674814;30;20045;-81
2021/12/09 09:07:18;;;;;;;75.88;40.13;;;4.40;99.90;;;;;;4657625;30;20062;-81
2021/12/09 09:09:44;;;;;;;83.63;41.65;;;4.50;99.90;;;;;;4643597;30;20055;-80
2021/12/09 09:12:13;;;;;;;96.77;47.70;;;4.60;99.90;;;;;;4641292;30;20285;-80
2021/12/09 09:14:40;;;;;;;86.63;46.50;;;4.70;99.90;;;;;;4673408;30;20326;-80
2021/12/09 09:17:07;;;;;;;82.03;40.53;;;4.70;99.90;;;;;;4672778;30;20053;-82
2021/12/09 09:19:33;;;;;;;79.77;39.43;;;4.80;99.90;;;;;;4658741;30;20034;-81
2021/12/09 09:21:59;;;;;;;75.82;38.85;;;4.80;99.90;;;;;;4659055;30;20037;-81
2021/12/09 09:24:25;;;;;;;69.57;36.80;;;4.60;99.90;;;;;;4640984;30;20042;-78
2021/12/09 09:26:51;;;;;;;66.00;36.33;;;4.50;99.90;;;;;;4658882;30;20256;-80
2021/12/09 09:29:17;;;;;;;59.75;33.97;;;4.30;99.90;;;;;;4663000;30;20090;-80
2021/12/09 09:31:43;;;;;;;57.10;31.00;;;4.20;99.90;;;;;;4655861;30;20038;-81
2021/12/09 09:34:11;;;;;;;56.50;31.60;;;4.20;99.90;;;;;;4652375;30;20050;-81
2021/12/09 09:36:39;;;;;;;58.28;31.63;;;4.30;99.90;;;;;;4641831;30;20680;-81
2021/12/09 09:39:16;;;;;;;54.90;27.50;;;4.30;99.90;;;;;;4670941;30;20101;-81
2021/12/09 09:41:42;;;;;;;;;;;4.30;99.90;;;;;;4660937;30;20230;-78
2021/12/09 09:44:16;;;;;;;55.83;29.23;;;4.20;99.90;;;;;;4656543;30;19924;-80
2021/12/09 09:46:43;;;;;;;52.42;28.17;;;4.20;99.90;;;;;;4667856;30;20062;-79
2021/12/09 09:49:10;;;;;;;56.20;30.58;;;4.10;99.90;;;;;;4659580;30;20050;-80
2021/12/09 09:51:36;;;;;;;52.10;28.45;;;4.10;99.90;;;;;;4675182;30;20229;-80
2021/12/09 09:54:05;;;;;;;56.80;29.38;;;4.00;99.90;;;;;;4644637;30;20334;-81
2021/12/09 09:56:34;;;;;;;55.88;30.25;;;4.00;99.90;;;;;;4652164;30;20062;-80
2021/12/09 09:59:04;;;;;;;56.25;29.75;;;4.00;99.90;;;;;;4652515;30;20390;-80
2021/12/09 10:01:33;;;;;;;50.25;27.15;;;4.00;99.90;;;;;;4673816;30;20053;-79
2021/12/09 10:04:11;;;;;;;58.45;30.08;;;4.10;99.90;;;;;;4672385;30;20035;-80
2021/12/09 10:06:40;;;;;;;60.83;29.55;;;4.10;99.90;;;;;;4643913;30;20042;-79
2021/12/09 10:09:07;;;;;;;60.00;28.70;;;4.10;99.90;;;;;;4659531;30;20030;-79
2021/12/09 10:11:33;;;;;;;55.60;29.25;;;4.10;99.90;;;;;;4664625;30;20050;-79
2021/12/09 10:14:19;;;;;;;56.78;31.55;;;4.20;99.90;;;;;;4686389;30;20037;-80
2021/12/09 10:16:59;;;;;;;52.22;30.88;;;4.10;99.90;;;;;;4686122;30;20540;-80
2021/12/09 10:19:24;;;;;;;58.60;29.13;;;4.00;99.90;;;;;;4673203;30;20031;-80
2021/12/09 10:22:04;;;;;;;58.95;30.88;;;4.00;99.90;;;;;;4668224;30;20045;-80
2021/12/09 10:24:32;;;;;;;48.03;27.52;;;4.00;99.90;;;;;;4670646;30;20069;-79
2021/12/09 10:26:57;;;;;;;56.30;30.45;;;4.00;99.90;;;;;;4680205;30;20027;-79
2021/12/09 10:29:30;;;;;;;60.00;31.00;;;4.00;99.90;;;;;;4671833;30;20038;-79
2021/12/09 10:32:00;;;;;;;69.35;32.35;;;4.00;99.90;;;;;;4661337;30;20034;-80
2021/12/09 10:34:46;;;;;;;61.95;30.90;;;3.90;99.90;;;;;;4672570;30;20034;-80
2021/12/09 10:37:15;;;;;;;65.60;31.80;;;3.90;99.90;;;;;;4646789;30;20220;-79
2021/12/09 10:39:46;;;;;;;72.28;31.95;;;3.90;99.90;;;;;;4664228;30;20396;-80
2021/12/09 10:42:20;;;;;;;59.58;29.55;;;4.00;99.90;;;;;;4670851;30;20042;-79
2021/12/09 10:44:59;;;;;;;65.85;32.72;;;4.00;99.90;;;;;;4676168;30;20045;-80
2021/12/09 10:50:25;;;;;;;49.15;25.77;;;4.30;99.90;;;;;;4661609;30;20212;-80
2021/12/09 10:55:46;;;;;;;50.00;27.48;;;4.50;99.90;;;;;;4660733;30;20050;-80
2021/12/09 10:58:14;;;;;;;47.13;25.98;;;4.70;99.90;;;;;;4647786;30;20045;-80
2021/12/09 11:00:56;;;;;;;50.80;27.50;;;4.80;99.90;;;;;;4647246;30;20034;-80
2021/12/09 11:03:23;;;;;;;48.03;28.05;;;4.80;99.90;;;;;;4661547;30;20102;-80
2021/12/09 11:06:01;;;;;;;49.88;28.40;;;4.80;99.90;;;;;;4644985;30;20046;-80
2021/12/09 11:08:29;;;;;;;53.63;31.55;;;4.80;99.90;;;;;;4661959;30;20038;-80
2021/12/09 11:11:07;;;;;;;53.53;30.13;;;4.80;99.90;;;;;;4647221;30;20057;-80
2021/12/09 11:13:48;;;;;;;42.25;26.05;;;5.00;99.90;;;;;;4647426;30;20038;-80
2021/12/09 11:16:23;;;;;;;42.22;22.95;;;5.00;99.90;;;;;;4647378;30;20331;-80
2021/12/09 11:18:51;;;;;;;44.70;26.15;;;5.10;99.90;;;;;;4655799;30;20042;-81
2021/12/09 11:21:32;;;;;;;39.85;24.88;;;5.20;99.70;;;;;;4630621;30;20334;-81
2021/12/09 11:24:03;;;;;;;46.05;24.90;;;5.30;99.60;;;;;;4647151;30;20072;-82
2021/12/09 11:29:24;;;;;;;40.15;23.90;;;5.30;99.10;;;;;;4658188;30;20061;-82
2021/12/09 11:32:25;;;;;;;41.40;23.80;;;5.30;99.20;;;;;;4661010;30;20039;-82
2021/12/09 11:34:53;;;;;;;46.90;26.20;;;5.40;99.10;;;;;;4660915;30;20051;-82
2021/12/09 11:40:00;;;;;;;36.53;22.15;;;5.40;98.70;;;;;;4656397;30;20057;-82
2021/12/09 11:42:33;;;;;;;46.10;25.20;;;5.40;98.40;;;;;;4646988;30;20249;-82
2021/12/09 11:44:59;;;;;;;39.10;23.05;;;5.40;98.60;;;;;;4646555;30;20094;-82
2021/12/09 11:47:25;;;;;;;45.22;26.92;;;5.40;98.80;;;;;;4659521;30;20090;-82
2021/12/09 11:49:52;;;;;;;43.15;25.33;;;5.40;98.50;;;;;;4645245;30;20046;-82
2021/12/09 11:52:20;;;;;;;40.13;22.75;;;5.40;98.20;;;;;;4659228;30;20041;-82
2021/12/09 11:54:58;;;;;;;45.22;24.80;;;5.40;98.40;;;;;;4660295;30;20230;-82
2021/12/09 12:12:24;;;;;;;37.80;22.10;;;5.20;98.40;;;;;;4673932;30;20042;-82
2021/12/09 12:14:53;;;;;;;37.70;21.90;;;5.10;98.50;;;;;;4660535;30;20322;-83
2021/12/09 12:17:38;;;;;;;34.97;22.35;;;5.00;98.80;;;;;;4645277;30;20022;-82
2021/12/09 12:26:13;;;;;;;38.35;24.40;;;5.00;99.00;;;;;;4668678;30;20113;-81
2021/12/09 12:39:55;;;;;;;41.10;24.35;;;5.20;98.80;;;;;;4673731;30;20062;-81
2021/12/09 12:45:17;;;;;;;43.50;24.48;;;5.20;98.70;;;;;;4669995;30;20039;-81
2021/12/09 12:47:52;;;;;;;37.22;22.90;;;5.10;98.70;;;;;;4646410;30;20054;-81
2021/12/09 12:50:20;;;;;;;36.30;21.02;;;5.10;98.80;;;;;;4645667;30;20050;-81
2021/12/09 12:52:47;;;;;;;36.65;20.98;;;5.10;98.70;;;;;;4641682;30;20054;-81
2021/12/09 12:55:16;;;;;;;34.67;21.33;;;5.10;98.80;;;;;;4665843;30;20058;-81
2021/12/09 12:57:47;;;;;;;37.08;21.45;;;5.10;99.00;;;;;;4659439;30;20046;-81
2021/12/09 13:00:29;;;;;;;37.72;22.40;;;5.10;99.00;;;;;;4663152;30;20046;-81
2021/12/09 13:11:50;;;;;;;34.45;21.00;;;5.00;98.80;;;;;;4654613;30;20062;-82
2021/12/09 13:14:22;;;;;;;36.70;21.63;;;5.00;99.10;;;;;;4639703;30;20046;-82
2021/12/09 13:17:16;;;;;;;35.10;21.13;;;4.90;99.10;;;;;;4623696;30;20051;-82
2021/12/09 13:20:00;;;;;;;32.08;19.30;;;5.00;99.10;;;;;;4637055;30;20346;-82
2021/12/09 13:22:36;;;;;;;29.95;18.75;;;4.90;99.00;;;;;;4638204;30;20050;-82
2021/12/09 13:25:20;;;;;;;25.73;16.88;;;4.90;99.20;;;;;;4625128;30;20091;-82
2021/12/09 13:27:54;;;;;;;26.85;17.30;;;4.90;99.30;;;;;;4612026;31;20060;-82
2021/12/09 13:33:15;;;;;;;28.88;17.23;;;4.80;99.00;;;;;;4637147;31;20227;-81
2021/12/09 13:47:44;;;;;;;35.50;21.67;;;4.90;99.40;;;;;;4588700;31;20049;-84
2021/12/09 13:55:17;;;;;;;44.78;24.27;;;4.80;99.40;;;;;;4561134;31;20045;-84
2021/12/09 13:57:51;;;;;;;40.55;24.08;;;4.70;99.40;;;;;;4586218;31;20048;-84
2021/12/09 14:00:25;;;;;;;44.03;25.80;;;4.70;99.80;;;;;;4561233;31;20387;-82
2021/12/09 14:02:53;;;;;;;45.78;25.42;;;4.70;99.80;;;;;;4574580;31;20344;-84
2021/12/09 14:05:20;;;;;;;42.60;24.73;;;4.70;99.80;;;;;;4574700;31;20075;-81
2021/12/09 14:08:07;;;;;;;50.95;29.70;;;4.70;99.60;;;;;;4561224;31;20149;-82
2021/12/09 14:10:36;;;;;;;52.80;29.33;;;4.70;99.80;;;;;;4563306;31;20063;-81
2021/12/09 14:13:08;;;;;;;58.55;32.15;;;4.70;99.90;;;;;;4583975;31;20059;-82
2021/12/09 14:15:55;;;;;;;52.70;30.10;;;4.70;99.90;;;;;;4562263;31;20044;-82
2021/12/09 14:18:24;;;;;;;;;;;4.70;99.90;;;;;;4590356;31;20355;-82
2021/12/09 14:20:50;;;;;;;51.00;29.73;;;4.70;99.80;;;;;;4612502;30;19994;-82
2021/12/09 14:23:17;;;;;;;55.85;30.83;;;4.70;99.80;;;;;;4661627;30;20081;-82
2021/12/09 14:25:44;;;;;;;51.55;30.08;;;4.70;99.90;;;;;;4647969;30;20141;-82
2021/12/09 14:28:17;;;;;;;47.95;28.02;;;4.60;99.70;;;;;;4659701;30;20046;-82
2021/12/09 14:30:45;;;;;;;54.25;29.02;;;4.60;99.70;;;;;;4661916;30;20071;-82
2021/12/09 14:33:12;;;;;;;50.92;27.77;;;4.60;99.90;;;;;;4648021;30;20360;-82
2021/12/09 14:35:46;;;;;;;45.40;26.48;;;4.50;99.90;;;;;;4676122;30;20043;-82
2021/12/09 14:38:24;;;;;;;47.22;25.58;;;4.50;99.90;;;;;;4655410;30;20042;-83
2021/12/09 14:40:55;;;;;;;52.63;27.52;;;4.40;99.90;;;;;;4675219;30;20207;-83
2021/12/09 14:43:23;;;;;;;45.10;24.92;;;4.30;99.90;;;;;;4660965;30;20330;-84
2021/12/09 14:45:54;;;;;;;45.85;26.30;;;4.20;99.90;;;;;;4654421;30;20271;-84
2021/12/09 14:48:26;;;;;;;56.92;30.08;;;4.10;99.90;;;;;;4646355;30;20046;-84
2021/12/09 14:50:52;;;;;;;47.50;27.00;;;4.00;99.90;;;;;;4646660;30;20046;-84
2021/12/09 14:53:52;;;;;;;52.33;27.80;;;3.90;99.90;;;;;;4646581;30;20053;-84
2021/12/09 14:56:27;;;;;;;52.65;26.67;;;3.90;99.90;;;;;;4579133;31;20150;-84
2021/12/09 14:59:13;;;;;;;48.58;28.00;;;3.90;99.90;;;;;;4592295;31;20044;-85
2021/12/09 15:01:39;;;;;;;48.83;27.02;;;3.90;99.90;;;;;;4591010;31;20093;-85
2021/12/09 15:04:12;;;;;;;55.22;29.33;;;3.90;99.90;;;;;;4593268;31;20052;-84
2021/12/09 15:06:41;;;;;;;47.10;26.30;;;3.90;99.90;;;;;;4578849;31;20048;-84
2021/12/09 15:09:14;;;;;;;52.95;27.25;;;3.90;99.90;;;;;;4593071;31;20052;-83
2021/12/09 15:11:46;;;;;;;43.00;24.17;;;3.90;99.90;;;;;;4579824;31;20044;-82
2021/12/09 15:14:35;;;;;;;43.78;24.23;;;3.90;99.90;;;;;;4594315;31;20297;-82
2021/12/09 15:17:20;;;;;;;44.65;25.92;;;4.00;99.90;;;;;;4602241;31;20080;-82
2021/12/09 15:20:09;;;;;;;48.08;25.42;;;4.00;99.90;;;;;;4604336;31;20244;-82
2021/12/09 15:22:45;;;;;;;51.28;27.73;;;4.00;99.90;;;;;;4579191;31;20060;-82
2021/12/09 15:25:15;;;;;;;48.13;24.67;;;3.90;99.90;;;;;;4603126;31;20095;-82
2021/12/09 15:28:06;;;;;;;42.47;23.73;;;3.90;99.90;;;;;;4596155;31;20047;-82
2021/12/09 15:30:53;;;;;;;39.17;21.73;;;3.90;99.90;;;;;;4525146;31;20058;-82
2021/12/09 15:33:45;;;;;;;46.63;23.75;;;3.90;99.90;;;;;;4569982;31;20048;-82
2021/12/09 15:36:17;;;;;;;43.22;23.98;;;3.90;99.90;;;;;;4588352;31;20053;-82
2021/12/09 15:39:08;;;;;;;43.33;25.42;;;3.90;99.90;;;;;;4583723;31;20079;-82
2021/12/09 15:41:36;;;;;;;59.42;28.75;;;3.90;99.90;;;;;;4594083;31;20276;-83
2021/12/09 15:44:12;;;;;;;58.38;29.08;;;3.80;99.90;;;;;;4588364;31;20049;-82
2021/12/09 15:46:53;;;;;;;51.67;27.58;;;3.80;99.90;;;;;;4590442;31;20055;-82
2021/12/09 15:49:25;;;;;;;60.63;31.70;;;3.90;99.90;;;;;;4592825;31;20351;-83
2021/12/09 15:52:01;;;;;;;64.93;33.97;;;3.80;99.90;;;;;;4590620;31;20332;-84
2021/12/09 15:54:54;;;;;;;66.88;36.67;;;3.80;99.90;;;;;;4595747;31;20036;-82
2021/12/09 15:57:29;;;;;;;75.32;39.30;;;3.70;99.90;;;;;;4603153;31;20058;-83
2021/12/09 15:59:57;;;;;;;81.28;40.95;;;3.60;99.90;;;;;;4591085;31;20225;-83
2021/12/09 16:02:32;;;;;;;85.97;45.00;;;3.60;99.90;;;;;;4583688;31;20286;-82
2021/12/09 16:05:23;;;;;;;94.90;46.28;;;3.50;99.90;;;;;;4590050;31;20065;-83
2021/12/09 16:07:50;;;;;;;98.15;48.22;;;3.40;99.90;;;;;;4616467;30;20098;-83
2021/12/09 16:10:19;;;;;;;93.40;47.08;;;3.40;99.90;;;;;;4610517;30;20365;-83
2021/12/09 16:12:52;;;;;;;95.60;46.35;;;3.30;99.90;;;;;;4615230;30;20071;-83
2021/12/09 16:15:57;;;;;;;91.93;46.95;;;3.30;99.90;;;;;;4615909;31;20047;-83
2021/12/09 16:18:28;;;;;;;97.63;48.58;;;3.30;99.90;;;;;;4623326;31;20154;-83
2021/12/09 16:21:05;;;;;;;97.95;46.53;;;3.40;99.90;;;;;;4626254;31;20043;-83
2021/12/09 16:23:47;;;;;;;83.55;43.38;;;3.50;99.90;;;;;;4617924;31;20044;-83
2021/12/09 16:26:17;;;;;;;86.60;45.90;;;3.50;99.90;;;;;;4613333;31;20059;-83
2021/12/09 16:28:50;;;;;;;91.18;47.63;;;3.60;99.90;;;;;;4613238;31;20043;-83
2021/12/09 16:31:24;;;;;;;101.78;51.17;;;3.60;99.90;;;;;;4625584;31;20235;-83
2021/12/09 16:34:00;;;;;;;103.27;52.00;;;3.60;99.90;;;;;;4596935;31;20043;-83
2021/12/09 16:36:36;;;;;;;97.50;49.50;;;3.50;99.90;;;;;;4612085;30;20046;-83
2021/12/09 16:39:14;;;;;;;100.07;49.13;;;3.50;99.90;;;;;;4616478;30;20074;-83
2021/12/09 16:41:56;;;;;;;91.80;46.60;;;3.50;99.90;;;;;;4632985;30;20394;-83
2021/12/09 16:44:30;;;;;;;91.38;46.65;;;3.50;99.90;;;;;;4624500;30;20035;-84
2021/12/09 16:47:01;;;;;;;86.50;45.50;;;3.50;99.90;;;;;;4679952;30;20038;-84
2021/12/09 16:49:37;;;;;;;93.45;46.90;;;3.50;99.90;;;;;;4664912;30;20048;-84
2021/12/09 16:52:03;;;;;;;84.65;46.20;;;3.60;99.90;;;;;;4679638;30;20027;-84
2021/12/09 16:54:42;;;;;;;90.37;46.03;;;3.60;99.90;;;;;;4653988;30;20039;-84
2021/12/09 16:59:56;;;;;;;89.28;45.50;;;3.70;99.90;;;;;;4673416;30;20034;-84
2021/12/09 17:02:29;;;;;;;88.40;44.10;;;3.70;99.90;;;;;;4665915;30;20070;-84
2021/12/09 17:05:10;;;;;;;87.78;44.55;;;3.70;99.90;;;;;;4640013;30;20050;-83
2021/12/09 17:07:37;;;;;;;;;;;3.70;99.90;;;;;;4659572;30;20583;-85
2021/12/09 17:10:15;;;;;;;86.50;44.53;;;3.80;99.90;;;;;;4672550;30;20107;-83
2021/12/09 17:12:45;;;;;;;91.05;45.95;;;3.80;99.90;;;;;;4672229;30;20311;-83
2021/12/09 17:15:20;;;;;;;97.43;49.00;;;3.80;99.90;;;;;;4623394;30;20121;-83
2021/12/09 17:17:55;;;;;;;91.97;46.97;;;3.80;99.90;;;;;;4631275;30;20357;-84
2021/12/09 17:20:22;;;;;;;90.43;46.38;;;3.80;99.90;;;;;;4655576;30;20107;-83
2021/12/09 17:22:50;;;;;;;90.15;44.55;;;3.80;99.90;;;;;;4658596;30;20353;-83
2021/12/09 17:25:21;;;;;;;100.95;49.97;;;3.70;99.90;;;;;;4657242;30;20066;-83
2021/12/09 17:27:56;;;;;;;89.38;48.13;;;3.80;99.90;;;;;;4657590;30;20057;-83
2021/12/09 17:30:25;;;;;;;94.43;47.40;;;3.80;99.90;;;;;;4632656;30;20101;-83
2021/12/09 17:32:57;;;;;;;99.75;49.22;;;3.80;99.90;;;;;;4658656;30;20241;-83
2021/12/09 17:35:29;;;;;;;90.00;46.70;;;3.70;99.90;;;;;;4640825;30;20092;-84
2021/12/09 17:38:03;;;;;;;91.25;46.42;;;3.70;99.90;;;;;;4669515;30;20081;-82
2021/12/09 17:40:31;;;;;;;87.45;44.70;;;3.80;99.90;;;;;;4667112;30;20039;-82
2021/12/09 17:42:57;;;;;;;87.30;43.95;;;3.80;99.90;;;;;;4658172;30;20046;-83
2021/12/09 17:45:26;;;;;;;90.10;42.75;;;3.80;99.90;;;;;;4653783;30;20038;-83
2021/12/09 17:47:56;;;;;;;92.97;47.22;;;3.80;99.90;;;;;;4660458;30;20270;-83
2021/12/09 17:50:51;;;;;;;93.82;46.33;;;3.80;99.90;;;;;;4673589;30;20048;-83
2021/12/09 17:53:19;;;;;;;96.50;49.03;;;3.80;99.90;;;;;;4655485;30;20062;-83
2021/12/09 17:55:49;;;;;;;104.13;52.90;;;3.90;99.90;;;;;;4655702;30;20055;-82
2021/12/09 17:58:24;;;;;;;96.15;48.67;;;3.90;99.90;;;;;;4659632;30;20051;-82
2021/12/09 18:00:52;;;;;;;106.65;54.65;;;3.90;99.90;;;;;;4662762;30;20041;-84
2021/12/09 18:03:25;;;;;;;109.15;56.25;;;3.90;99.90;;;;;;4676484;30;20207;-84